EDW25G LPPD-LSZH
Flight info
| Callsign | EDW25G |
|---|---|
| Flight time | N/A |
| Altitude | 35000 |
| Route | BEKUN DCT 39N019W DCT ERPES/N0440F360 DCT PARAV DCT PINEK DCT SUSOS N725 NUBLO DCT LUSEM DCT LACOU DCT NAKET DCT MURRO T544 LSE/N0431F370 DCT BELUS/N0428F360 DCT OMASI N871 KORED/N0380F260 N871 BERSU |
| Aircraft | A320/M-SDE3FGHIRWY/LB1 |
Departure
| Time | N/A |
|---|---|
| Airport | João Paulo II Airport (LPPD) |
Arrival
| Time | 2026-05-03 20:23 |
|---|---|
| Airport | Zürich Airport (LSZH) |
| Time | Latitude | Longitude | Altitude | Speed | Heading |
|---|---|---|---|---|---|
| 2026-05-03 20:15 | 47.33598 | 8.61332 | 9397 ft | 293 kts | 98° |
| 2026-05-03 20:15 | 47.33382 | 8.64300 | 8775 ft | 289 kts | 98° |
| 2026-05-03 20:15 | 47.33173 | 8.67226 | 8162 ft | 285 kts | 98° |
| 2026-05-03 20:15 | 47.32969 | 8.70120 | 7647 ft | 278 kts | 98° |
| 2026-05-03 20:16 | 47.32774 | 8.72890 | 7513 ft | 267 kts | 98° |
| 2026-05-03 20:16 | 47.32583 | 8.75564 | 7357 ft | 258 kts | 98° |
| 2026-05-03 20:16 | 47.32395 | 8.78152 | 7201 ft | 248 kts | 98° |
| 2026-05-03 20:16 | 47.32251 | 8.80628 | 7076 ft | 239 kts | 89° |
| 2026-05-03 20:17 | 47.32735 | 8.82913 | 6903 ft | 235 kts | 57° |
| 2026-05-03 20:17 | 47.33962 | 8.84465 | 6659 ft | 237 kts | 24° |
| 2026-05-03 20:17 | 47.35534 | 8.85045 | 6487 ft | 228 kts | 9° |
| 2026-05-03 20:17 | 47.37076 | 8.85353 | 6191 ft | 222 kts | 8° |
| 2026-05-03 20:18 | 47.38598 | 8.85631 | 5848 ft | 219 kts | 7° |
| 2026-05-03 20:18 | 47.40114 | 8.85747 | 5564 ft | 217 kts | 353° |
| 2026-05-03 20:18 | 47.41517 | 8.85166 | 5426 ft | 204 kts | 334° |
| 2026-05-03 20:18 | 47.42664 | 8.84008 | 5284 ft | 199 kts | 315° |
| 2026-05-03 20:19 | 47.43500 | 8.82411 | 5087 ft | 196 kts | 297° |
| 2026-05-03 20:19 | 47.43948 | 8.80539 | 4866 ft | 193 kts | 279° |
| 2026-05-03 20:19 | 47.44102 | 8.78578 | 4583 ft | 192 kts | 276° |
| 2026-05-03 20:19 | 47.44249 | 8.76630 | 4319 ft | 190 kts | 275° |
| 2026-05-03 20:20 | 47.44384 | 8.74696 | 4023 ft | 188 kts | 275° |
| 2026-05-03 20:20 | 47.44515 | 8.72784 | 3759 ft | 186 kts | 275° |
| 2026-05-03 20:20 | 47.44655 | 8.70911 | 3520 ft | 181 kts | 276° |
| 2026-05-03 20:20 | 47.44787 | 8.69124 | 3302 ft | 169 kts | 275° |
| 2026-05-03 20:21 | 47.44909 | 8.67469 | 3066 ft | 154 kts | 276° |
| 2026-05-03 20:21 | 47.45020 | 8.65947 | 2805 ft | 145 kts | 275° |
| 2026-05-03 20:21 | 47.45126 | 8.64486 | 2571 ft | 142 kts | 276° |
| 2026-05-03 20:21 | 47.45232 | 8.63030 | 2361 ft | 144 kts | 275° |
| 2026-05-03 20:22 | 47.45337 | 8.61580 | 2151 ft | 143 kts | 276° |
| 2026-05-03 20:22 | 47.45443 | 8.60119 | 1928 ft | 143 kts | 276° |
| 2026-05-03 20:22 | 47.45547 | 8.58661 | 1718 ft | 142 kts | 276° |
| 2026-05-03 20:22 | 47.45647 | 8.57210 | 1499 ft | 142 kts | 276° |
| 2026-05-03 20:23 | 47.45746 | 8.55836 | 1412 ft | 119 kts | 276° |
| 2026-05-03 20:23 | 47.45817 | 8.54832 | 1387 ft | 61 kts | 276° |
| 2026-05-03 20:23 | 47.45799 | 8.54425 | 1385 ft | 28 kts | 242° |
| 2026-05-03 20:23 | 47.45725 | 8.54226 | 1383 ft | 16 kts | 210° |
| 2026-05-03 20:24 | 47.45645 | 8.54222 | 1382 ft | 7 kts | 152° |
| 2026-05-03 20:24 | 47.45620 | 8.54261 | 1384 ft | 7 kts | 121° |
| 2026-05-03 20:24 | 47.45595 | 8.54364 | 1387 ft | 14 kts | 107° |
| 2026-05-03 20:24 | 47.45565 | 8.54496 | 1389 ft | 13 kts | 108° |
| 2026-05-03 20:25 | 47.45538 | 8.54621 | 1389 ft | 14 kts | 107° |
| 2026-05-03 20:25 | 47.45501 | 8.54788 | 1401 ft | 19 kts | 108° |
| 2026-05-03 20:25 | 47.45458 | 8.54977 | 1397 ft | 19 kts | 109° |
| 2026-05-03 20:25 | 47.45414 | 8.55161 | 1402 ft | 19 kts | 109° |
| 2026-05-03 20:26 | 47.45359 | 8.55339 | 1400 ft | 19 kts | 117° |
| 2026-05-03 20:26 | 47.45298 | 8.55509 | 1411 ft | 18 kts | 118° |
| 2026-05-03 20:26 | 47.45276 | 8.55626 | 1406 ft | 4 kts | 68° |
| 2026-05-03 20:26 | 47.45313 | 8.55642 | 1411 ft | 7 kts | 5° |
| 2026-05-03 20:27 | 47.45353 | 8.55647 | 1410 ft | 2 kts | 6° |
| 2026-05-03 20:27 | 47.45353 | 8.55648 | 1407 ft | 0 kts | 6° |